Time;durP1;ratioP1;P1;durP2;ratioP2;P2;SDS_P1;SDS_P2;PMS_P1;PMS_P2;Temp;Humidity;BMP_temperature;BMP_pressure;BME280_temperature;BME280_humidity;BME280_pressure;Samples;Min_cycle;Max_cycle;Signal;HPM_P1;HPM_P2
2022/08/11 00:01:25;;;;;;;4.00;2.00;;;;;;;14.87;65.07;100690.56;5092687;28;20059;-78
2022/08/11 00:04:03;;;;;;;2.70;2.10;;;;;;;15.02;65.19;100740.50;5092759;28;20142;-77
2022/08/11 00:06:37;;;;;;;4.28;2.00;;;;;;;14.86;65.36;100709.81;5093269;28;20047;-77
2022/08/11 00:09:10;;;;;;;9.32;2.70;;;;;;;14.99;65.36;100708.06;5074922;28;20147;-81
2022/08/11 00:11:42;;;;;;;2.90;2.08;;;;;;;14.94;65.43;100713.34;5093022;28;20055;-78
2022/08/11 00:14:23;;;;;;;5.25;2.20;;;;;;;14.97;65.63;100725.59;5093051;28;20056;-77
2022/08/11 00:17:07;;;;;;;5.05;2.40;;;;;;;14.95;65.49;100728.25;5092885;28;20052;-77
2022/08/11 00:19:39;;;;;;;4.63;2.30;;;;;;;14.71;65.42;100687.03;5096773;28;20074;-81
2022/08/11 00:22:29;;;;;;;3.35;1.88;;;;;;;14.89;65.84;100728.25;5097072;28;20056;-78
2022/08/11 00:24:58;;;;;;;2.83;2.10;;;;;;;14.89;66.00;100744.03;5096598;28;20052;-81
2022/08/11 00:27:34;;;;;;;3.13;2.00;;;;;;;14.65;65.90;100693.19;5097107;28;20048;-79
2022/08/11 00:30:04;;;;;;;5.45;2.10;;;;;;;14.69;66.16;100717.72;5096297;28;20458;-78
2022/08/11 00:32:32;;;;;;;4.07;1.90;;;;;;;14.76;66.18;100747.56;5096799;28;20424;-78
2022/08/11 00:35:01;;;;;;;2.70;1.88;;;;;;;14.77;65.86;100736.13;5096525;28;20556;-79
2022/08/11 00:37:53;;;;;;;3.10;1.88;;;;;;;14.71;66.18;100748.41;5096503;28;20066;-77
2022/08/11 00:40:43;;;;;;;2.42;2.00;;;;;;;14.60;66.15;100744.00;5078744;28;20052;-77
2022/08/11 00:43:22;;;;;;;;;;;;;;;14.30;66.93;100745.69;5096896;28;20052;-79
2022/08/11 00:46:10;;;;;;;2.55;1.98;;;;;;;14.37;67.08;100746.56;5096595;28;19924;-79
2022/08/11 00:49:20;;;;;;;3.75;1.85;;;;;;;14.40;67.08;100750.09;5096531;28;20067;-80
2022/08/11 00:52:22;;;;;;;;;;;;;;;14.25;67.24;100750.94;5017592;28;20055;-80
2022/08/11 00:55:14;;;;;;;4.35;2.40;;;;;;;14.36;67.00;100750.94;5033667;28;19924;-78
2022/08/11 00:58:09;;;;;;;4.18;1.90;;;;;;;14.43;67.04;100751.84;5094133;28;20084;-81
2022/08/11 01:00:58;;;;;;;3.17;1.83;;;;;;;14.42;66.91;100743.09;5096044;28;20134;-77
2022/08/11 01:03:41;;;;;;;3.78;2.25;;;;;;;14.02;66.85;100672.06;5096099;28;20060;-78
2022/08/11 01:06:36;;;;;;;4.88;2.20;;;;;;;14.45;66.94;100748.34;5096109;28;20135;-77
2022/08/11 01:09:31;;;;;;;2.97;1.90;;;;;;;14.44;67.09;100749.22;5078318;28;20040;-79
2022/08/11 01:12:36;;;;;;;4.72;1.95;;;;;;;14.41;67.24;100753.59;5096137;28;20048;-78
2022/08/11 01:15:44;;;;;;;2.95;2.22;;;;;;;14.33;67.26;100754.47;5095876;28;20083;-78
2022/08/11 01:18:44;;;;;;;3.65;2.15;;;;;;;14.33;67.51;100759.72;5096421;28;20048;-77
2022/08/11 01:21:17;;;;;;;4.15;2.08;;;;;;;14.37;67.35;100757.97;5077802;28;20048;-79
2022/08/11 01:24:39;;;;;;;4.68;2.45;;;;;;;14.32;67.49;100762.34;5095876;28;20138;-77
2022/08/11 01:27:21;;;;;;;2.45;2.13;;;;;;;14.30;67.87;100762.34;5095763;28;20055;-79
2022/08/11 01:30:12;;;;;;;3.65;2.20;;;;;;;14.29;67.63;100760.59;5094718;28;20105;-79
2022/08/11 01:33:10;;;;;;;3.97;2.60;;;;;;;14.29;67.79;100757.09;5095997;28;20047;-78
2022/08/11 01:36:17;;;;;;;4.32;1.90;;;;;;;14.25;67.96;100766.69;5095656;28;20052;-78
2022/08/11 01:39:06;;;;;;;3.60;1.80;;;;;;;14.25;68.00;100758.81;5095879;28;20051;-79
2022/08/11 01:44:37;;;;;;;2.97;1.90;;;;;;;14.25;67.87;100774.59;5095380;28;20564;-79
2022/08/11 01:47:51;;;;;;;5.10;2.20;;;;;;;14.23;68.13;100775.47;5096060;28;20138;-79
2022/08/11 01:50:24;;;;;;;8.25;2.35;;;;;;;13.88;68.39;100737.69;5043743;28;20142;-79
2022/08/11 01:53:06;;;;;;;3.90;1.95;;;;;;;14.08;68.43;100769.28;5096936;28;20059;-79
2022/08/11 01:55:48;;;;;;;5.53;2.65;;;;;;;14.10;68.59;100788.53;5100616;28;20063;-78
2022/08/11 01:58:52;;;;;;;3.03;2.20;;;;;;;14.09;68.67;100773.66;5101473;28;20056;-77
2022/08/11 02:01:19;;;;;;;5.53;2.05;;;;;;;14.11;68.65;100771.03;5100028;28;20055;-78
2022/08/11 02:04:32;;;;;;;4.60;2.67;;;;;;;14.01;68.11;100758.75;5097105;28;20063;-79
2022/08/11 02:07:25;;;;;;;3.72;2.38;;;;;;;14.10;68.27;100791.16;5091749;28;20048;-78
2022/08/11 02:11:29;;;;;;;6.05;2.45;;;;;;;14.13;68.47;100785.03;5088562;28;20136;-80
2022/08/11 02:13:43;;;;;;;4.77;2.43;;;;;;;14.13;68.40;100799.09;5059977;28;20487;-77
2022/08/11 02:16:40;;;;;;;3.35;2.25;;;;;;;14.24;68.41;100795.59;5074358;28;20286;-78
2022/08/11 02:25:08;;;;;;;3.40;2.17;;;;;;;14.39;67.87;100803.56;5074344;28;20139;-79
2022/08/11 02:27:42;;;;;;;3.95;1.92;;;;;;;14.36;67.78;100787.75;5074569;28;20079;-78
2022/08/11 02:30:15;;;;;;;6.88;2.50;;;;;;;14.48;67.83;100802.69;5074296;28;20052;-78
2022/08/11 02:33:22;;;;;;;8.82;2.47;;;;;;;14.51;67.22;100821.09;5074560;28;20114;-79
2022/08/11 02:36:05;;;;;;;5.32;2.22;;;;;;;14.50;67.62;100806.19;5074266;28;20044;-77
2022/08/11 02:38:54;;;;;;;4.63;2.10;;;;;;;14.47;67.70;100803.56;5074647;28;20105;-79
2022/08/11 02:44:52;;;;;;;4.30;1.90;;;;;;;14.43;67.38;100807.94;5094516;28;20492;-79
2022/08/11 02:47:38;;;;;;;3.53;1.77;;;;;;;14.59;67.16;100814.13;5076378;28;20054;-77
2022/08/11 02:50:18;;;;;;;4.00;1.85;;;;;;;14.71;66.81;100821.16;5093723;28;20051;-80
2022/08/11 02:53:16;;;;;;;7.40;2.15;;;;;;;14.81;66.82;100822.06;5094210;28;20139;-81
2022/08/11 02:56:07;;;;;;;2.75;1.92;;;;;;;14.89;66.29;100818.56;5093887;28;20044;-78
2022/08/11 02:59:48;;;;;;;3.25;2.03;;;;;;;15.09;65.81;100817.69;5094174;28;20171;-79
2022/08/11 03:01:47;;;;;;;5.50;1.88;;;;;;;15.40;65.23;100823.81;5088545;28;20088;-78
2022/08/11 03:04:24;;;;;;;7.40;1.97;;;;;;;16.89;61.55;100814.47;5073493;28;20118;-81
2022/08/11 03:07:42;;;;;;;1.90;1.63;;;;;;;20.99;51.41;100810.69;5074028;28;20049;-79
2022/08/11 03:10:24;;;;;;;5.95;2.67;;;;;;;23.97;44.27;100813.19;5073565;28;20493;-79
2022/08/11 03:16:44;;;;;;;3.67;1.70;;;;;;;26.90;37.29;100794.34;5097862;28;20063;-78
2022/08/11 03:19:21;;;;;;;5.43;1.95;;;;;;;28.51;34.65;100815.41;5095375;28;20083;-80
2022/08/11 03:22:15;;;;;;;2.83;1.80;;;;;;;29.42;32.31;100815.50;5082176;28;20049;-80
2022/08/11 03:24:45;;;;;;;4.80;1.75;;;;;;;30.50;30.53;100822.31;5061001;28;20087;-80
2022/08/11 03:27:49;;;;;;;5.07;2.03;;;;;;;31.39;29.73;100816.41;5074904;28;20048;-77
2022/08/11 03:30:22;;;;;;;3.40;2.10;;;;;;;32.33;27.49;100821.50;5076761;28;20048;-79
2022/08/11 03:36:05;;;;;;;3.03;1.85;;;;;;;34.37;24.49;100813.06;5093686;28;20060;-79
2022/08/11 03:38:51;;;;;;;6.28;2.00;;;;;;;34.73;24.83;100810.19;5089749;28;20048;-78
2022/08/11 03:41:46;;;;;;;3.03;1.52;;;;;;;35.18;23.08;100821.75;5074660;28;20052;-79
2022/08/11 03:45:04;;;;;;;2.85;2.00;;;;;;;35.07;24.50;100819.91;5093557;28;20171;-80
2022/08/11 03:47:42;;;;;;;5.05;1.83;;;;;;;35.18;23.36;100808.19;5093185;28;20081;-79
2022/08/11 03:50:59;;;;;;;4.40;1.63;;;;;;;34.47;24.66;100805.91;5092754;28;20066;-77
2022/08/11 03:53:59;;;;;;;4.43;1.70;;;;;;;34.60;23.87;100807.59;5074690;28;20152;-78
2022/08/11 03:57:11;;;;;;;6.28;2.00;;;;;;;34.01;24.44;100803.31;5076198;28;20052;-80
2022/08/11 03:59:55;;;;;;;2.47;1.77;;;;;;;31.62;27.25;100798.63;5093140;28;20056;-79
2022/08/11 04:02:35;;;;;;;6.18;2.28;;;;;;;28.87;31.34;100798.13;5092954;28;20550;-79
2022/08/11 04:05:30;;;;;;;3.05;2.15;;;;;;;27.10;34.39;100812.09;5075132;28;20101;-80
2022/08/11 04:08:22;;;;;;;3.35;2.10;;;;;;;25.95;36.29;100818.47;5088557;28;20063;-80
2022/08/11 04:10:51;;;;;;;4.90;1.90;;;;;;;25.04;38.63;100816.16;5079870;28;20056;-78
2022/08/11 04:13:35;;;;;;;4.38;1.90;;;;;;;24.48;39.79;100818.38;5081121;28;20135;-78
2022/08/11 04:16:24;;;;;;;3.25;2.10;;;;;;;23.99;40.90;100827.34;5081279;28;20052;-79
2022/08/11 04:19:04;;;;;;;3.70;2.05;;;;;;;23.74;41.74;100824.66;5085739;28;20048;-80
2022/08/11 04:21:34;;;;;;;5.10;2.00;;;;;;;23.61;42.00;100826.91;5092743;28;20058;-79
2022/08/11 04:24:07;;;;;;;6.80;2.72;;;;;;;23.18;43.04;100834.56;5092899;28;20062;-78
2022/08/11 04:27:16;;;;;;;3.65;2.60;;;;;;;22.70;44.09;100830.78;5092507;28;20044;-81
2022/08/11 04:29:57;;;;;;;2.40;2.20;;;;;;;22.67;44.36;100833.53;5092845;28;20131;-80
2022/08/11 04:32:41;;;;;;;6.97;2.40;;;;;;;22.69;44.78;100833.47;5093292;28;20066;-81
2022/08/11 04:35:20;;;;;;;4.03;2.13;;;;;;;22.70;45.00;100853.88;5092895;28;20078;-80
2022/08/11 04:37:54;;;;;;;5.70;2.20;;;;;;;22.49;45.79;100832.28;5093287;28;20052;-81
2022/08/11 04:40:40;;;;;;;5.43;2.70;;;;;;;22.42;46.04;100836.06;5092055;28;20079;-79
2022/08/11 04:43:44;;;;;;;5.80;2.50;;;;;;;22.31;46.40;100837.34;5097694;28;20086;-81
2022/08/11 04:46:53;;;;;;;5.75;2.50;;;;;;;22.38;46.32;100833.56;5080402;28;20060;-83
2022/08/11 05:01:51;;;;;;;3.13;2.10;;;;;;;22.14;47.86;100837.78;5092416;28;20062;-80
2022/08/11 05:07:16;;;;;;;6.63;2.40;;;;;;;22.41;48.06;100844.09;5096415;28;20048;-77
2022/08/11 05:10:07;;;;;;;4.03;2.42;;;;;;;22.58;47.71;100838.25;5077937;28;20056;-80
2022/08/11 05:36:40;;;;;;;4.18;2.20;;;;;;;22.81;48.92;100843.75;5095154;28;20388;-80
2022/08/11 05:56:58;;;;;;;3.92;2.00;;;;;;;22.86;48.90;100856.91;5095284;28;20510;-78
2022/08/11 05:59:29;;;;;;;2.75;2.40;;;;;;;22.84;49.37;100846.31;5096381;28;20060;-78
2022/08/11 06:02:01;;;;;;;3.97;2.20;;;;;;;23.02;48.72;100852.00;5098494;28;20059;-78
2022/08/11 06:04:30;;;;;;;4.38;2.10;;;;;;;23.06;48.95;100851.84;5098861;28;20055;-79
2022/08/11 06:07:16;;;;;;;3.17;2.17;;;;;;;22.69;49.22;100817.50;5081313;28;20056;-79
2022/08/11 06:09:47;;;;;;;5.20;2.33;;;;;;;22.88;49.30;100842.63;5100395;28;20098;-80
2022/08/11 06:12:24;;;;;;;3.28;2.33;;;;;;;22.95;49.10;100845.09;5097762;28;20076;-78
2022/08/11 06:14:56;;;;;;;4.93;2.25;;;;;;;22.95;48.74;100834.44;5095629;28;20227;-80
2022/08/11 06:17:31;;;;;;;2.95;1.98;;;;;;;22.89;48.84;100822.19;5094290;28;20083;-80
2022/08/11 06:20:10;;;;;;;2.20;2.10;;;;;;;23.09;48.95;100845.56;5094863;28;20496;-80
2022/08/11 06:22:40;;;;;;;4.57;2.38;;;;;;;23.14;49.03;100837.41;5094749;28;20051;-81
2022/08/11 06:25:11;;;;;;;2.53;2.15;;;;;;;23.18;48.72;100837.25;5094961;28;20496;-79
2022/08/11 06:27:41;;;;;;;4.13;2.22;;;;;;;23.21;48.43;100850.47;5095783;28;20048;-78
2022/08/11 06:30:12;;;;;;;2.53;2.13;;;;;;;22.99;49.14;100854.72;5080825;28;20052;-79
2022/08/11 06:32:45;;;;;;;2.38;2.17;;;;;;;22.70;49.51;100812.13;5102773;28;20052;-79
2022/08/11 06:35:18;;;;;;;2.90;2.00;;;;;;;22.77;49.52;100847.41;5100677;28;20075;-81
2022/08/11 06:37:48;;;;;;;2.25;2.08;;;;;;;22.76;49.94;100844.78;5097562;28;20048;-79
2022/08/11 06:41:29;;;;;;;2.50;2.30;;;;;;;22.65;49.65;100835.38;5094513;28;20143;-80
2022/08/11 06:43:52;;;;;;;4.22;1.98;;;;;;;22.63;49.66;100847.88;5094010;28;20047;-78
2022/08/11 06:46:25;;;;;;;;;;;;;;;22.34;49.93;100848.75;5094754;28;20101;-79
2022/08/11 06:48:55;;;;;;;2.45;2.25;;;;;;;22.40;49.74;100851.22;5094301;28;19985;-80
2022/08/11 06:51:23;;;;;;;4.53;2.30;;;;;;;22.23;49.93;100809.13;5075783;28;20052;-80
2022/08/11 06:54:01;;;;;;;5.03;2.22;;;;;;;22.47;49.65;100817.31;5094254;28;20055;-79
2022/08/11 07:02:36;;;;;;;4.90;2.97;;;;;;;23.02;48.92;100836.91;5074495;28;19923;-78
2022/08/11 07:05:10;;;;;;;2.78;2.35;;;;;;;23.17;47.75;100840.84;5093855;28;20290;-78
2022/08/11 07:17:17;;;;;;;2.50;2.25;;;;;;;23.21;47.54;100839.81;5093973;28;20498;-79
2022/08/11 07:31:16;;;;;;;3.30;2.40;;;;;;;23.55;46.37;100817.31;5093189;28;20048;-80
2022/08/11 07:33:48;;;;;;;2.33;2.00;;;;;;;23.79;45.35;100828.06;5093265;28;20047;-81
2022/08/11 07:36:41;;;;;;;3.53;2.35;;;;;;;24.02;45.50;100837.91;5092118;28;20048;-80
2022/08/11 07:39:17;;;;;;;3.42;2.35;;;;;;;24.28;44.16;100826.25;5073046;28;20078;-81
2022/08/11 07:41:46;;;;;;;1.98;1.88;;;;;;;24.22;43.96;100830.03;5073480;28;20098;-81
2022/08/11 07:44:15;;;;;;;2.30;2.10;;;;;;;24.08;44.65;100829.69;5072881;28;20052;-80
2022/08/11 07:52:32;;;;;;;3.10;1.90;;;;;;;23.70;43.37;100797.22;5073360;28;20071;-79
2022/08/11 07:55:07;;;;;;;1.98;1.88;;;;;;;24.10;42.99;100806.47;5073101;28;20083;-82
2022/08/11 08:17:55;;;;;;;3.05;1.60;;;;;;;24.99;39.86;100832.34;5081146;28;20051;-78
2022/08/11 08:20:51;;;;;;;3.40;1.70;;;;;;;24.83;39.21;100833.94;5082096;28;20047;-78
2022/08/11 08:23:31;;;;;;;1.92;1.75;;;;;;;24.72;39.57;100826.34;5081528;28;20060;-80
2022/08/11 08:26:57;;;;;;;2.20;1.33;;;;;;;24.85;37.94;100837.41;5082023;28;20044;-81
2022/08/11 08:30:46;;;;;;;1.25;1.25;;;;;;;24.85;37.14;100826.72;5082831;28;20059;-78
2022/08/11 08:31:42;;;;;;;;;;;;;;;24.96;38.18;100834.28;5083448;28;20147;-81
2022/08/11 08:34:12;;;;;;;3.47;1.70;;;;;;;25.22;38.05;100817.19;5083034;28;19928;-79
2022/08/11 08:36:43;;;;;;;1.52;1.40;;;;;;;25.22;37.57;100826.09;5092168;28;20080;-79
2022/08/11 08:39:12;;;;;;;1.85;1.60;;;;;;;25.28;36.34;100836.53;5094488;28;20056;-79
2022/08/11 08:41:41;;;;;;;1.60;1.50;;;;;;;25.19;36.03;100827.97;5096446;28;20105;-79
2022/08/11 08:44:11;;;;;;;2.15;1.80;;;;;;;25.19;36.57;100826.19;5096204;28;20538;-77
2022/08/11 08:46:59;;;;;;;1.88;1.65;;;;;;;24.69;37.07;100814.00;5096514;28;20051;-78
2022/08/11 08:49:37;;;;;;;2.88;1.60;;;;;;;24.50;38.24;100807.59;5096774;28;20071;-77
2022/08/11 08:52:11;;;;;;;4.07;1.98;;;;;;;24.37;38.26;100807.22;5097146;28;20138;-78
2022/08/11 08:55:03;;;;;;;1.63;1.52;;;;;;;24.58;37.98;100824.22;5095500;28;20493;-80
2022/08/11 08:57:33;;;;;;;2.47;1.30;;;;;;;25.01;36.79;100809.09;5078076;28;20047;-79
2022/08/11 09:00:07;;;;;;;1.40;1.30;;;;;;;25.40;35.32;100819.06;5096350;28;20052;-80
2022/08/11 09:02:41;;;;;;;1.63;1.52;;;;;;;25.28;35.36;100833.84;5079129;28;20060;-79
2022/08/11 09:05:08;;;;;;;2.03;1.20;;;;;;;24.95;35.00;100830.72;5096081;28;20117;-79
2022/08/11 09:07:37;;;;;;;1.75;1.35;;;;;;;25.08;36.37;100832.00;5095921;28;20097;-78
2022/08/11 09:10:09;;;;;;;2.72;1.42;;;;;;;25.19;36.78;100825.31;5078092;28;20051;-78
2022/08/11 09:12:39;;;;;;;1.30;1.30;;;;;;;25.04;35.94;100809.00;5095365;28;20143;-79
2022/08/11 09:15:08;;;;;;;1.45;1.30;;;;;;;25.18;36.48;100828.94;5096205;28;20060;-79
2022/08/11 09:17:45;;;;;;;1.85;1.48;;;;;;;25.03;36.16;100783.19;5095765;28;20415;-78
2022/08/11 09:20:25;;;;;;;1.50;1.40;;;;;;;25.41;35.62;100803.91;5096012;28;20056;-79
2022/08/11 09:28:59;;;;;;;1.65;1.50;;;;;;;25.24;36.01;100824.22;5095896;28;20063;-77
2022/08/11 09:31:30;;;;;;;1.63;1.52;;;;;;;25.48;35.98;100816.06;5095370;28;20052;-79
2022/08/11 09:34:05;;;;;;;1.45;1.35;;;;;;;25.67;34.96;100824.16;5094634;28;20044;-79
2022/08/11 09:42:05;;;;;;;0.95;0.95;;;;;;;26.11;30.32;100805.25;5096292;28;20058;-80
2022/08/11 09:44:47;;;;;;;1.25;1.13;;;;;;;26.61;28.95;100793.09;5095522;28;20052;-78
2022/08/11 09:47:27;;;;;;;0.90;0.90;;;;;;;27.12;27.81;100781.59;5077544;28;20458;-79
2022/08/11 09:50:00;;;;;;;1.70;1.20;;;;;;;27.31;27.66;100786.91;5095481;28;20077;-79
2022/08/11 09:52:37;;;;;;;2.25;1.00;;;;;;;27.46;28.91;100798.66;5094840;28;20661;-78
2022/08/11 09:55:09;;;;;;;1.67;1.58;;;;;;;27.02;31.44;100792.84;5077750;28;20058;-79
2022/08/11 10:00:31;;;;;;;2.30;1.70;;;;;;;25.95;33.88;100789.91;5094971;28;20520;-80
2022/08/11 10:03:01;;;;;;;3.10;1.50;;;;;;;26.06;34.48;100786.72;5094890;28;20408;-78
2022/08/11 10:08:18;;;;;;;2.63;1.77;;;;;;;26.09;34.69;100757.16;5086248;28;20044;-80
2022/08/11 10:10:46;;;;;;;1.50;1.40;;;;;;;26.28;33.74;100775.00;5094497;28;20496;-78
2022/08/11 10:13:24;;;;;;;1.33;1.23;;;;;;;26.24;33.81;100760.91;5094618;28;20056;-79
2022/08/11 10:16:12;;;;;;;1.38;1.38;;;;;;;26.16;34.29;100763.09;5094797;28;20058;-79
2022/08/11 10:18:53;;;;;;;1.75;1.65;;;;;;;26.12;34.43;100789.13;5094758;28;20059;-79
2022/08/11 10:21:40;;;;;;;1.40;1.30;;;;;;;26.08;33.74;100784.84;5094593;28;20538;-79
2022/08/11 10:27:02;;;;;;;3.80;1.33;;;;;;;26.22;33.40;100768.16;5094164;28;20504;-79
2022/08/11 10:35:30;;;;;;;1.25;1.25;;;;;;;26.52;32.15;100740.81;5093248;28;20110;-79
2022/08/11 10:37:59;;;;;;;2.13;1.65;;;;;;;26.90;31.78;100781.81;5076218;28;20101;-78
2022/08/11 10:40:44;;;;;;;2.10;1.38;;;;;;;26.86;31.12;100788.25;5094073;28;20059;-79
2022/08/11 10:43:12;;;;;;;1.23;1.13;;;;;;;26.62;31.52;100778.78;5076127;28;20088;-78
2022/08/11 10:48:57;;;;;;;1.30;1.20;;;;;;;26.48;31.24;100766.00;5081017;28;20117;-78
2022/08/11 10:59:56;;;;;;;1.80;1.70;;;;;;;26.49;32.40;100779.31;5096907;28;20051;-78
2022/08/11 11:02:26;;;;;;;2.35;1.63;;;;;;;26.32;33.00;100763.22;5098089;28;20048;-78
2022/08/11 11:05:02;;;;;;;;;;;;;;;26.31;33.23;100762.34;5095483;28;20075;-77
2022/08/11 11:08:02;;;;;;;1.55;1.45;;;;;;;26.38;33.02;100759.38;5094100;28;19928;-79
2022/08/11 11:10:31;;;;;;;1.88;1.40;;;;;;;26.52;32.87;100770.28;5078295;28;20136;-78
2022/08/11 11:18:36;;;;;;;1.48;1.33;;;;;;;26.64;32.35;100761.66;5094822;28;20076;-77
2022/08/11 11:21:14;;;;;;;1.38;1.30;;;;;;;26.65;31.71;100759.84;5094788;28;20051;-78
2022/08/11 11:24:09;;;;;;;1.88;1.38;;;;;;;26.61;31.86;100750.22;5094114;28;20134;-78
2022/08/11 11:26:59;;;;;;;2.45;1.50;;;;;;;26.67;32.12;100745.47;5079790;28;20496;-78
2022/08/11 11:29:39;;;;;;;1.77;1.67;;;;;;;26.89;31.94;100745.25;5080867;28;20423;-78
2022/08/11 11:32:19;;;;;;;3.20;1.60;;;;;;;26.99;31.40;100747.44;5099459;28;20151;-78
2022/08/11 11:34:49;;;;;;;;;;;;;;;26.76;32.10;100744.13;5080433;28;20199;-79
2022/08/11 11:37:24;;;;;;;2.00;1.80;;;;;;;26.92;31.11;100726.31;5099889;28;19964;-79
2022/08/11 11:39:54;;;;;;;2.03;1.70;;;;;;;27.09;31.64;100733.50;5078548;28;20054;-76
2022/08/11 11:42:22;;;;;;;1.40;1.40;;;;;;;26.98;31.27;100738.53;5091633;28;20454;-77
2022/08/11 11:44:50;;;;;;;1.70;1.60;;;;;;;26.76;32.32;100742.31;5092353;28;20055;-79
2022/08/11 11:47:22;;;;;;;1.60;1.50;;;;;;;26.55;32.49;100759.41;5092717;28;20511;-76
2022/08/11 11:49:49;;;;;;;1.60;1.30;;;;;;;26.43;32.38;100757.34;5092384;28;20067;-77
2022/08/11 11:52:19;;;;;;;1.60;1.50;;;;;;;26.26;32.57;100734.91;5074246;28;20052;-77
2022/08/11 11:54:49;;;;;;;1.65;1.55;;;;;;;26.03;33.05;100745.84;5092433;28;20048;-76
2022/08/11 12:03:02;;;;;;;3.78;1.55;;;;;;;25.77;33.27;100742.56;5092731;28;20083;-79
2022/08/11 12:05:33;;;;;;;1.88;1.77;;;;;;;26.01;32.78;100753.09;5092045;28;20516;-79
2022/08/11 12:08:15;;;;;;;2.28;1.52;;;;;;;26.14;32.51;100735.50;5092925;28;20043;-78
2022/08/11 12:13:42;;;;;;;1.48;1.38;;;;;;;26.31;31.87;100737.38;5091869;28;20056;-77
2022/08/11 12:16:12;;;;;;;2.35;2.15;;;;;;;26.40;31.65;100730.72;5093465;28;20162;-79
2022/08/11 12:19:00;;;;;;;2.33;2.00;;;;;;;26.67;31.33;100734.75;5091944;28;20052;-78
2022/08/11 12:21:28;;;;;;;2.03;1.80;;;;;;;26.52;31.13;100687.22;5091795;28;20082;-79
2022/08/11 12:29:36;;;;;;;3.17;1.50;;;;;;;26.66;31.04;100729.44;5090904;28;20043;-76
2022/08/11 12:32:10;;;;;;;1.55;1.40;;;;;;;26.82;31.25;100734.91;5091687;28;20052;-77
2022/08/11 12:34:38;;;;;;;2.17;2.08;;;;;;;26.91;30.81;100726.38;5091341;28;20052;-77
2022/08/11 12:37:09;;;;;;;1.73;1.60;;;;;;;26.74;31.07;100717.41;5092422;28;20048;-77
2022/08/11 12:46:01;;;;;;;2.47;1.50;;;;;;;26.26;31.44;100737.56;5092253;28;20127;-76
2022/08/11 12:54:56;;;;;;;3.60;1.85;;;;;;;26.15;31.95;100724.72;5074239;28;20461;-81
2022/08/11 13:06:23;;;;;;;;;;;;;;;25.89;32.78;100717.91;5095073;28;20058;-77
2022/08/11 13:08:51;;;;;;;2.35;1.80;;;;;;;26.09;32.10;100721.47;5092700;28;19928;-79
2022/08/11 13:14:50;;;;;;;2.55;1.67;;;;;;;25.92;32.08;100696.38;5085459;28;20087;-78
2022/08/11 13:17:21;;;;;;;1.80;1.50;;;;;;;25.75;32.13;100683.75;5092158;28;20044;-79
2022/08/11 13:20:11;;;;;;;3.53;1.42;;;;;;;25.97;31.85;100719.38;5092251;28;20051;-81
2022/08/11 13:22:44;;;;;;;3.35;1.60;;;;;;;26.08;31.90;100719.72;5092058;28;20504;-80
2022/08/11 13:25:14;;;;;;;2.53;1.58;;;;;;;26.02;31.61;100712.84;5092006;28;20490;-81
2022/08/11 13:27:44;;;;;;;2.22;1.58;;;;;;;25.94;31.88;100682.91;5089048;28;20369;-81
2022/08/11 13:33:09;;;;;;;2.65;1.75;;;;;;;26.11;31.95;100720.47;5084849;28;20143;-81
2022/08/11 13:35:38;;;;;;;1.48;1.38;;;;;;;26.04;31.90;100692.22;5066397;28;20415;-82
2022/08/11 13:38:11;;;;;;;1.60;1.50;;;;;;;26.12;31.76;100697.22;5086420;28;20051;-78
2022/08/11 13:40:47;;;;;;;1.88;1.63;;;;;;;26.10;31.19;100717.84;5087813;28;20044;-79
2022/08/11 13:43:23;;;;;;;2.88;1.50;;;;;;;26.03;31.54;100706.56;5086210;28;20044;-79
2022/08/11 13:46:17;;;;;;;2.35;1.60;;;;;;;26.03;31.41;100697.66;5087758;28;20060;-80
2022/08/11 13:48:41;;;;;;;2.10;1.95;;;;;;;26.07;31.49;100697.47;5092212;28;20139;-79
2022/08/11 13:54:18;;;;;;;2.30;1.80;;;;;;;25.83;32.04;100699.44;5073844;28;20584;-81
2022/08/11 13:56:50;;;;;;;1.58;1.50;;;;;;;25.87;31.81;100690.31;5086812;28;20044;-82
2022/08/11 13:59:21;;;;;;;2.47;1.63;;;;;;;26.03;31.25;100709.25;5083633;28;20048;-82
2022/08/11 14:02:03;;;;;;;1.92;1.50;;;;;;;25.82;31.35;100665.59;5086674;28;20052;-80
2022/08/11 14:04:57;;;;;;;2.33;1.60;;;;;;;25.93;31.33;100700.78;5064906;28;20079;-79
2022/08/11 14:07:34;;;;;;;3.00;1.52;;;;;;;26.00;31.40;100693.31;5074575;28;20421;-79
2022/08/11 14:10:04;;;;;;;2.10;1.70;;;;;;;25.51;31.05;100623.34;5051716;28;20072;-81
2022/08/11 14:15:30;;;;;;;4.40;1.75;;;;;;;25.78;31.78;100690.75;5086822;28;20048;-80
2022/08/11 14:18:11;;;;;;;1.85;1.75;;;;;;;25.37;31.51;100640.06;5082857;28;20044;-80
2022/08/11 14:23:42;;;;;;;2.22;2.00;;;;;;;25.58;31.50;100675.66;5095696;28;20048;-79
2022/08/11 14:26:29;;;;;;;3.22;1.75;;;;;;;25.57;31.78;100681.91;5094546;28;20097;-77
2022/08/11 14:29:03;;;;;;;3.58;1.90;;;;;;;25.38;31.88;100692.59;5077738;28;20519;-80
2022/08/11 14:31:36;;;;;;;2.13;1.60;;;;;;;25.24;32.75;100673.63;5096165;28;20129;-80
2022/08/11 14:34:09;;;;;;;1.70;1.60;;;;;;;25.16;32.64;100660.56;5095327;28;20063;-79
2022/08/11 14:36:42;;;;;;;2.85;1.88;;;;;;;25.06;33.05;100667.25;5095216;28;20060;-80
2022/08/11 14:39:21;;;;;;;1.98;1.80;;;;;;;24.84;32.57;100645.94;5095710;28;20109;-78
2022/08/11 14:47:40;;;;;;;2.80;1.60;;;;;;;24.93;32.86;100662.47;5078890;28;20426;-80
2022/08/11 14:50:16;;;;;;;2.83;1.75;;;;;;;25.07;32.47;100661.00;5098033;28;20142;-78
2022/08/11 14:52:59;;;;;;;2.15;1.60;;;;;;;25.11;33.06;100668.78;5102205;28;20424;-80
2022/08/11 14:58:22;;;;;;;2.75;1.88;;;;;;;25.14;32.70;100655.31;5104570;28;20052;-79
2022/08/11 15:00:53;;;;;;;1.90;1.80;;;;;;;25.12;32.37;100659.84;5085475;28;20044;-79
2022/08/11 15:03:22;;;;;;;3.60;1.80;;;;;;;25.06;32.81;100662.78;5101863;28;20522;-78
2022/08/11 15:05:58;;;;;;;1.60;1.50;;;;;;;24.91;32.33;100640.28;5097209;28;20048;-78
2022/08/11 15:14:06;;;;;;;3.30;1.90;;;;;;;24.93;32.71;100657.13;5095597;28;20058;-77
2022/08/11 15:19:29;;;;;;;2.00;1.80;;;;;;;24.94;32.86;100655.31;5096627;28;20063;-79
2022/08/11 15:24:57;;;;;;;2.78;1.80;;;;;;;24.96;33.37;100665.94;5094700;28;20048;-78
2022/08/11 15:38:48;;;;;;;2.50;2.20;;;;;;;24.78;33.71;100670.25;5095811;28;20109;-79
2022/08/11 15:47:39;;;;;;;4.47;1.80;;;;;;;24.69;33.67;100663.50;5095675;28;20075;-78
2022/08/11 15:50:14;;;;;;;3.33;2.05;;;;;;;24.69;33.96;100667.06;5078002;28;20060;-79
2022/08/11 15:52:53;;;;;;;2.58;1.92;;;;;;;24.51;34.02;100633.13;5103930;28;20056;-79
2022/08/11 15:55:22;;;;;;;2.60;2.00;;;;;;;24.36;34.01;100615.91;5104437;28;20106;-79
2022/08/11 16:04:11;;;;;;;3.25;1.88;;;;;;;24.52;33.76;100670.44;5097145;28;20070;-78
2022/08/11 16:06:56;;;;;;;4.10;2.10;;;;;;;24.47;33.69;100668.84;5097070;28;20044;-79
2022/08/11 16:09:39;;;;;;;2.55;2.35;;;;;;;24.48;33.39;100659.94;5096196;28;20051;-79
2022/08/11 16:12:22;;;;;;;2.50;2.17;;;;;;;24.40;33.83;100654.91;5077874;28;20120;-79
2022/08/11 16:18:02;;;;;;;4.80;2.00;;;;;;;24.32;34.75;100670.34;5094748;28;20052;-78
2022/08/11 16:20:30;;;;;;;8.73;3.75;;;;;;;24.27;35.04;100659.00;5075943;28;20048;-80
2022/08/11 16:23:02;;;;;;;4.97;3.10;;;;;;;24.26;35.28;100674.16;5094123;28;20062;-79
2022/08/11 16:25:34;;;;;;;9.52;4.50;;;;;;;24.06;35.51;100634.91;5094230;28;20044;-78
2022/08/11 16:28:25;;;;;;;13.48;5.05;;;;;;;24.16;35.69;100669.25;5094569;28;20101;-80
2022/08/11 16:30:55;;;;;;;13.88;6.00;;;;;;;23.92;36.22;100627.47;5094823;28;20079;-79
2022/08/11 16:33:24;;;;;;;14.43;7.18;;;;;;;23.97;36.42;100653.97;5095497;28;20052;-80
2022/08/11 16:39:02;;;;;;;8.32;4.30;;;;;;;23.92;36.77;100667.50;5094943;28;20082;-79
2022/08/11 16:47:12;;;;;;;8.38;4.50;;;;;;;23.52;37.48;100636.97;5094135;28;20075;-80
2022/08/11 16:49:52;;;;;;;8.20;3.65;;;;;;;23.60;37.86;100659.84;5090307;28;20048;-80
2022/08/11 16:52:23;;;;;;;6.43;4.43;;;;;;;23.59;37.79;100658.09;5092426;28;20129;-78
2022/08/11 16:54:50;;;;;;;10.82;5.03;;;;;;;23.52;38.06;100666.31;5092042;28;20058;-78
2022/08/11 17:00:14;;;;;;;9.60;4.45;;;;;;;23.30;38.52;100660.91;5093592;28;20388;-80
2022/08/11 17:14:50;;;;;;;9.70;5.32;;;;;;;22.80;39.66;100678.66;5095052;28;20051;-79
2022/08/11 17:17:26;;;;;;;10.05;5.47;;;;;;;22.79;39.68;100666.28;5089517;28;20102;-80